createdAt,value
2024-05-09T00:00:22.088Z,93.41
2024-05-09T00:01:15.247Z,93.41
2024-05-09T00:02:15.172Z,93.51
2024-05-09T00:03:15.237Z,93.51
2024-05-09T00:04:15.160Z,93.41
2024-05-09T00:05:15.313Z,93.30
2024-05-09T00:06:15.125Z,93.20
2024-05-09T00:07:15.102Z,93.20
2024-05-09T00:08:15.149Z,93.20
2024-05-09T00:09:15.117Z,93.00
2024-05-09T00:10:22.694Z,92.90
2024-05-09T00:11:15.170Z,92.90
2024-05-09T00:12:15.155Z,92.90
2024-05-09T00:13:15.061Z,92.79
2024-05-09T00:14:15.101Z,92.79
2024-05-09T00:15:15.028Z,92.90
2024-05-09T00:16:15.011Z,92.90
2024-05-09T00:17:15.104Z,93.04
2024-05-09T00:18:15.130Z,93.25
2024-05-09T00:19:15.197Z,93.25
2024-05-09T00:20:20.495Z,93.15
2024-05-09T00:21:15.034Z,93.25
2024-05-09T00:22:14.960Z,93.25
2024-05-09T00:23:15.045Z,93.35
2024-05-09T00:24:14.922Z,93.35
2024-05-09T00:25:14.918Z,93.35
2024-05-09T00:26:14.959Z,93.29
2024-05-09T00:27:14.905Z,93.39
2024-05-09T00:28:14.904Z,93.49
2024-05-09T00:29:14.920Z,93.70
2024-05-09T00:30:24.126Z,93.80
2024-05-09T00:31:14.846Z,94.01
2024-05-09T00:32:14.915Z,94.11
2024-05-09T00:33:15.063Z,94.15
2024-05-09T00:34:14.949Z,94.15
2024-05-09T00:35:14.913Z,94.46
2024-05-09T00:36:14.823Z,94.56
2024-05-09T00:37:14.796Z,94.56
2024-05-09T00:38:14.859Z,94.46
2024-05-09T00:39:14.816Z,94.56
2024-05-09T00:40:22.490Z,94.26
2024-05-09T00:41:17.132Z,94.56
2024-05-09T00:42:14.774Z,94.46
2024-05-09T00:43:15.375Z,94.26
2024-05-09T00:44:14.795Z,94.21
2024-05-09T00:45:14.698Z,94.21
2024-05-09T00:46:14.693Z,94.11
2024-05-09T00:47:14.957Z,93.66
2024-05-09T00:48:17.548Z,93.45
2024-05-09T00:49:14.971Z,93.15
2024-05-09T00:50:19.407Z,92.43
2024-05-09T00:51:14.907Z,92.32
2024-05-09T00:52:14.618Z,92.53
2024-05-09T00:53:14.952Z,92.63
2024-05-09T00:54:14.592Z,93.15
2024-05-09T00:55:14.613Z,93.15
2024-05-09T00:56:14.637Z,93.04
2024-05-09T00:57:14.567Z,93.25
2024-05-09T00:58:14.560Z,92.98
2024-05-09T00:59:14.615Z,92.68
2024-05-09T01:00:22.674Z,92.68
2024-05-09T01:01:14.578Z,92.78
2024-05-09T01:02:14.563Z,93.08
2024-05-09T01:03:14.848Z,93.54
2024-05-09T01:04:14.533Z,93.85
2024-05-09T01:05:14.661Z,94.05
2024-05-09T01:06:14.476Z,94.26
2024-05-09T01:07:14.472Z,94.30
2024-05-09T01:08:14.514Z,94.51
2024-05-09T01:09:14.467Z,94.71
2024-05-09T01:10:21.152Z,95.02
2024-05-09T01:11:14.592Z,95.43
2024-05-09T01:12:14.562Z,95.78
2024-05-09T01:13:14.406Z,95.74
2024-05-09T01:14:14.435Z,95.57
2024-05-09T01:15:14.396Z,95.27
2024-05-09T01:16:14.360Z,95.06
2024-05-09T01:17:14.412Z,95.06
2024-05-09T01:18:14.598Z,94.96
2024-05-09T01:19:14.601Z,94.96
2024-05-09T01:20:20.174Z,94.96
2024-05-09T01:21:14.505Z,94.85
2024-05-09T01:22:14.356Z,94.96
2024-05-09T01:23:16.037Z,94.85
2024-05-09T01:24:14.300Z,94.76
2024-05-09T01:25:14.273Z,94.65
2024-05-09T01:26:14.366Z,94.76
2024-05-09T01:27:14.305Z,94.96
2024-05-09T01:28:14.297Z,94.96
2024-05-09T01:29:14.265Z,94.85
2024-05-09T01:30:17.454Z,94.96
2024-05-09T01:31:14.226Z,94.96
2024-05-09T01:32:14.306Z,94.96
2024-05-09T01:33:14.563Z,94.85
2024-05-09T01:34:14.208Z,94.76
2024-05-09T01:35:14.235Z,94.76
2024-05-09T01:36:14.255Z,94.76
2024-05-09T01:37:14.176Z,94.85
2024-05-09T01:38:14.367Z,95.27
2024-05-09T01:39:14.155Z,95.27
2024-05-09T01:40:18.579Z,95.74
2024-05-09T01:41:14.181Z,95.43
2024-05-09T01:42:14.122Z,95.43
2024-05-09T01:43:14.085Z,94.81
2024-05-09T01:44:14.982Z,95.28
2024-05-09T01:45:14.077Z,94.67
2024-05-09T01:46:14.053Z,94.05
2024-05-09T01:47:14.128Z,93.85
2024-05-09T01:48:14.143Z,93.38
2024-05-09T01:49:14.251Z,93.99
2024-05-09T01:51:14.044Z,93.48
2024-05-09T01:52:14.015Z,93.52
2024-05-09T01:53:14.904Z,93.83
2024-05-09T01:54:14.014Z,93.83
2024-05-09T01:55:13.961Z,94.14
2024-05-09T01:56:13.996Z,94.24
2024-05-09T01:57:13.948Z,94.96
2024-05-09T01:58:13.936Z,95.47
2024-05-09T01:59:13.976Z,95.27
2024-05-09T02:00:19.014Z,95.27
2024-05-09T02:01:13.975Z,95.78
2024-05-09T02:02:14.095Z,94.96
2024-05-09T02:03:16.556Z,95.06
2024-05-09T02:04:14.227Z,94.51
2024-05-09T02:05:14.078Z,93.21
2024-05-09T02:06:13.903Z,93.12
2024-05-09T02:07:13.829Z,94.85
2024-05-09T02:08:14.596Z,96.56
2024-05-09T02:09:13.806Z,96.15
2024-05-09T02:10:20.355Z,95.90
2024-05-09T02:11:13.873Z,95.39
2024-05-09T02:12:13.904Z,94.77
2024-05-09T02:13:13.784Z,95.07
2024-05-09T02:14:13.809Z,94.46
2024-05-09T02:15:13.754Z,93.44
2024-05-09T02:16:13.734Z,93.95
2024-05-09T02:17:13.854Z,93.44
2024-05-09T02:18:14.304Z,93.02
2024-05-09T02:19:13.891Z,92.25
2024-05-09T02:20:22.413Z,93.89
2024-05-09T02:21:13.746Z,94.61
2024-05-09T02:22:13.685Z,93.99
2024-05-09T02:23:13.877Z,93.17
2024-05-09T02:24:13.684Z,93.59
2024-05-09T02:25:13.659Z,93.59
2024-05-09T02:26:13.720Z,94.61
2024-05-09T02:27:13.622Z,94.61
2024-05-09T02:28:13.606Z,94.61
2024-05-09T02:29:13.647Z,94.71
2024-05-09T02:30:22.386Z,95.02
2024-05-09T02:31:13.623Z,95.39
2024-05-09T02:32:13.653Z,95.18
2024-05-09T02:33:14.561Z,94.77
2024-05-09T02:34:13.716Z,94.15
2024-05-09T02:35:13.580Z,93.95
2024-05-09T02:36:13.530Z,93.85
2024-05-09T02:37:13.503Z,92.61
2024-05-09T02:38:13.846Z,92.31
2024-05-09T02:39:13.505Z,93.13
2024-05-09T02:40:15.031Z,92.25
2024-05-09T02:41:13.529Z,91.53
2024-05-09T02:42:13.457Z,91.47
2024-05-09T02:43:13.483Z,92.40
2024-05-09T02:44:13.481Z,93.52
2024-05-09T02:45:13.432Z,92.80
2024-05-09T02:46:13.432Z,92.54
2024-05-09T02:47:13.521Z,92.74
2024-05-09T02:48:14.281Z,92.74
2024-05-09T02:49:13.577Z,92.89
2024-05-09T02:50:16.238Z,93.40
2024-05-09T02:51:13.461Z,94.02
2024-05-09T02:52:13.373Z,94.54
2024-05-09T02:53:14.089Z,94.89
2024-05-09T02:54:13.368Z,95.09
2024-05-09T02:55:13.326Z,95.20
2024-05-09T02:56:13.385Z,95.30
2024-05-09T02:57:13.636Z,95.30
2024-05-09T02:58:13.325Z,95.30
2024-05-09T02:59:13.352Z,95.40
2024-05-09T03:00:19.037Z,95.30
2024-05-09T03:01:13.326Z,95.30
2024-05-09T03:02:13.404Z,95.30
2024-05-09T03:03:15.282Z,95.20
2024-05-09T03:04:13.296Z,95.20
2024-05-09T03:05:13.256Z,95.20
2024-05-09T03:06:13.242Z,95.09
2024-05-09T03:07:13.238Z,94.68
2024-05-09T03:08:13.404Z,94.52
2024-05-09T03:09:13.190Z,94.21
2024-05-09T03:10:18.609Z,94.11
2024-05-09T03:11:13.266Z,94.31
2024-05-09T03:12:13.318Z,94.67
2024-05-09T03:13:14.635Z,94.98
2024-05-09T03:14:13.136Z,95.39
2024-05-09T03:15:13.059Z,95.59
2024-05-09T03:16:13.072Z,96.00
2024-05-09T03:17:13.132Z,96.11
2024-05-09T03:18:13.580Z,96.31
2024-05-09T03:19:13.107Z,96.31
2024-05-09T03:20:20.501Z,96.21
2024-05-09T03:21:13.034Z,96.00
2024-05-09T03:22:12.997Z,95.90
2024-05-09T03:23:13.114Z,95.70
2024-05-09T03:24:12.985Z,95.34
2024-05-09T03:25:12.978Z,95.08
2024-05-09T03:26:13.010Z,94.87
2024-05-09T03:27:12.963Z,94.77
2024-05-09T03:28:12.947Z,94.77
2024-05-09T03:29:12.967Z,94.67
2024-05-09T03:30:25.604Z,94.56
2024-05-09T03:31:12.899Z,94.77
2024-05-09T03:32:12.955Z,94.87
2024-05-09T03:33:14.135Z,94.62
2024-05-09T03:34:12.894Z,94.42
2024-05-09T03:35:13.009Z,94.42
2024-05-09T03:36:12.845Z,94.21
2024-05-09T03:37:12.822Z,94.31
2024-05-09T03:38:13.042Z,94.31
2024-05-09T03:39:12.824Z,94.11
2024-05-09T03:40:20.267Z,96.27
2024-05-09T03:41:12.829Z,95.65
2024-05-09T03:42:12.804Z,95.45
2024-05-09T03:43:12.814Z,96.43
2024-05-09T03:44:12.783Z,96.73
2024-05-09T03:45:12.760Z,95.50
2024-05-09T03:46:12.744Z,94.78
2024-05-09T03:47:12.823Z,93.76
2024-05-09T03:48:13.216Z,94.17
2024-05-09T03:49:12.817Z,94.78
2024-05-09T03:50:18.516Z,93.65
2024-05-09T03:51:12.879Z,93.29
2024-05-09T03:52:12.716Z,93.80
2024-05-09T03:53:12.873Z,94.21
2024-05-09T03:54:12.699Z,93.90
2024-05-09T03:55:12.675Z,94.11
2024-05-09T03:56:12.736Z,94.42
2024-05-09T03:57:12.654Z,94.62
2024-05-09T03:58:12.640Z,94.36
2024-05-09T03:59:12.708Z,94.56
2024-05-09T04:00:18.181Z,94.67
2024-05-09T04:01:12.678Z,94.56
2024-05-09T04:02:12.641Z,94.46
2024-05-09T04:03:13.485Z,94.36
2024-05-09T04:04:12.610Z,94.05
2024-05-09T04:05:12.624Z,94.05
2024-05-09T04:06:12.673Z,93.84
2024-05-09T04:07:12.515Z,93.84
2024-05-09T04:08:12.683Z,93.74
2024-05-09T04:09:12.554Z,93.64
2024-05-09T04:10:21.024Z,93.54
2024-05-09T04:11:12.724Z,93.43
2024-05-09T04:12:12.652Z,93.33
2024-05-09T04:13:12.502Z,93.39
2024-05-09T04:14:12.683Z,93.39
2024-05-09T04:15:13.685Z,93.29
2024-05-09T04:16:12.494Z,93.29
2024-05-09T04:17:12.487Z,93.29
2024-05-09T04:18:12.702Z,93.33
2024-05-09T04:19:12.491Z,93.39
2024-05-09T04:20:21.464Z,93.59
2024-05-09T04:21:12.409Z,93.39
2024-05-09T04:22:12.376Z,93.08
2024-05-09T04:23:13.081Z,92.87
2024-05-09T04:24:12.410Z,92.77
2024-05-09T04:25:12.319Z,92.87
2024-05-09T04:26:12.405Z,92.97
2024-05-09T04:27:12.317Z,93.18
2024-05-09T04:28:12.304Z,93.08
2024-05-09T04:29:12.329Z,93.18
2024-05-09T04:30:18.526Z,93.39
2024-05-09T04:31:12.282Z,93.39
2024-05-09T04:32:12.327Z,93.39
2024-05-09T04:33:14.004Z,93.24
2024-05-09T04:34:12.400Z,93.14
2024-05-09T04:35:12.292Z,92.83
2024-05-09T04:36:12.242Z,92.73
2024-05-09T04:37:12.199Z,92.63
2024-05-09T04:38:12.368Z,92.73
2024-05-09T04:39:12.191Z,92.73
2024-05-09T04:40:24.007Z,92.83
2024-05-09T04:41:12.235Z,92.13
2024-05-09T04:42:12.208Z,89.56
2024-05-09T04:43:12.153Z,84.93
2024-05-09T04:44:12.247Z,80.99
2024-05-09T04:45:12.137Z,77.96
2024-05-09T04:46:12.152Z,75.85
2024-05-09T04:47:12.220Z,73.64
2024-05-09T04:48:12.347Z,72.17
2024-05-09T04:49:12.165Z,71.02
2024-05-09T04:50:17.701Z,69.33
2024-05-09T04:51:12.281Z,68.38
2024-05-09T04:52:12.471Z,67.88
2024-05-09T04:53:12.327Z,67.88
2024-05-09T04:54:22.221Z,67.44
2024-05-09T04:55:12.085Z,66.60
2024-05-09T04:56:12.123Z,66.29
2024-05-09T04:57:11.999Z,66.39
2024-05-09T04:58:12.209Z,66.16
2024-05-09T04:59:12.074Z,65.65
2024-05-09T05:00:14.939Z,64.70
2024-05-09T05:01:12.026Z,64.47
2024-05-09T05:02:12.014Z,64.81
2024-05-09T05:03:14.628Z,64.81
2024-05-09T05:04:12.114Z,64.34
2024-05-09T05:05:12.265Z,63.20
2024-05-09T05:06:11.947Z,62.35
2024-05-09T05:07:11.992Z,61.49
2024-05-09T05:08:11.933Z,60.68
2024-05-09T05:09:11.878Z,60.78
2024-05-09T05:10:14.834Z,60.55
2024-05-09T05:11:11.917Z,60.14
2024-05-09T05:12:11.898Z,60.14
2024-05-09T05:13:11.968Z,59.91
2024-05-09T05:14:11.914Z,59.38
2024-05-09T05:15:11.907Z,58.87
2024-05-09T05:16:11.931Z,59.08
2024-05-09T05:17:11.888Z,59.08
2024-05-09T05:18:11.867Z,58.65
2024-05-09T05:19:15.131Z,58.32
2024-05-09T05:20:15.244Z,58.54
2024-05-09T05:21:11.761Z,58.65
2024-05-09T05:22:11.764Z,59.08
2024-05-09T05:23:11.969Z,59.08
2024-05-09T05:24:11.706Z,60.02
2024-05-09T05:25:11.725Z,59.78
2024-05-09T05:26:11.766Z,58.72
2024-05-09T05:27:11.699Z,57.98
2024-05-09T05:28:11.680Z,57.23
2024-05-09T05:29:11.731Z,56.75
2024-05-09T05:30:17.867Z,57.15
2024-05-09T05:31:11.646Z,57.45
2024-05-09T05:32:11.886Z,57.68
2024-05-09T05:33:11.824Z,57.65
2024-05-09T05:34:11.665Z,57.35
2024-05-09T05:35:11.632Z,57.12
2024-05-09T05:36:11.576Z,56.27
2024-05-09T05:37:11.575Z,55.43
2024-05-09T05:38:11.690Z,55.00
2024-05-09T05:39:11.552Z,55.11
2024-05-09T05:40:14.667Z,54.38
2024-05-09T05:41:11.583Z,54.28
2024-05-09T05:42:11.518Z,54.78
2024-05-09T05:43:11.503Z,53.72
2024-05-09T05:44:11.507Z,53.52
2024-05-09T05:45:11.525Z,53.09
2024-05-09T05:46:11.511Z,52.87
2024-05-09T05:47:11.519Z,52.04
2024-05-09T05:48:11.673Z,51.74
2024-05-09T05:49:11.598Z,51.74
2024-05-09T05:50:20.781Z,51.84
2024-05-09T05:51:11.508Z,51.64
2024-05-09T05:52:11.421Z,51.54
2024-05-09T05:53:11.463Z,51.84
2024-05-09T05:54:11.400Z,51.82
2024-05-09T05:55:11.408Z,51.92
2024-05-09T05:56:11.491Z,51.21
2024-05-09T05:57:11.372Z,51.21
2024-05-09T05:58:11.381Z,51.54
2024-05-09T05:59:14.037Z,51.51
2024-05-09T06:00:15.095Z,51.42
2024-05-09T06:01:11.337Z,51.84
2024-05-09T06:02:11.388Z,51.82
2024-05-09T06:03:11.703Z,51.49
2024-05-09T06:04:11.337Z,50.99
2024-05-09T06:05:11.408Z,51.19
2024-05-09T06:06:11.282Z,50.76
2024-05-09T06:07:11.250Z,51.27
2024-05-09T06:08:11.314Z,51.32
2024-05-09T06:09:11.249Z,52.04
2024-05-09T06:10:17.384Z,52.34
2024-05-09T06:11:11.281Z,52.22
2024-05-09T06:12:11.336Z,51.46
2024-05-09T06:13:11.848Z,50.44
2024-05-09T06:14:11.223Z,50.99
2024-05-09T06:15:11.176Z,50.59
2024-05-09T06:16:11.174Z,50.79
2024-05-09T06:17:11.325Z,50.79
2024-05-09T06:18:12.338Z,48.86
2024-05-09T06:19:11.249Z,48.99
2024-05-09T06:20:20.172Z,49.29
2024-05-09T06:21:11.186Z,49.08
2024-05-09T06:22:11.108Z,49.34
2024-05-09T06:23:11.221Z,49.04
2024-05-09T06:24:11.080Z,48.22
2024-05-09T06:25:11.092Z,47.52
2024-05-09T06:26:11.097Z,46.94
2024-05-09T06:27:11.052Z,48.16
2024-05-09T06:28:11.072Z,49.21
2024-05-09T06:29:11.059Z,49.58
2024-05-09T06:30:21.151Z,48.89
2024-05-09T06:31:10.996Z,48.81
2024-05-09T06:32:11.057Z,49.43
2024-05-09T06:33:13.041Z,49.66
2024-05-09T06:34:11.040Z,50.38
2024-05-09T06:35:10.996Z,50.66
2024-05-09T06:36:10.952Z,49.81
2024-05-09T06:37:10.930Z,49.11
2024-05-09T06:38:11.607Z,49.29
2024-05-09T06:39:10.938Z,48.28
2024-05-09T06:40:12.549Z,47.99
2024-05-09T06:41:10.931Z,48.71
2024-05-09T06:42:11.030Z,48.61
2024-05-09T06:43:11.061Z,48.69
2024-05-09T06:44:10.935Z,48.51
2024-05-09T06:45:10.853Z,49.33
2024-05-09T06:46:10.998Z,49.16
2024-05-09T06:47:10.868Z,49.31
2024-05-09T06:48:11.049Z,48.79
2024-05-09T06:49:10.923Z,49.29
2024-05-09T06:50:16.504Z,49.71
2024-05-09T06:51:10.871Z,50.56
2024-05-09T06:52:10.784Z,50.13
2024-05-09T06:53:10.794Z,49.93
2024-05-09T06:54:10.752Z,50.63
2024-05-09T06:55:10.740Z,49.93
2024-05-09T06:56:10.757Z,50.16
2024-05-09T06:57:10.752Z,50.59
2024-05-09T06:58:10.708Z,49.05
2024-05-09T06:59:10.784Z,48.69
2024-05-09T07:00:15.631Z,49.07
2024-05-09T07:01:10.729Z,48.57
2024-05-09T07:02:10.854Z,48.46
2024-05-09T07:03:11.636Z,48.99
2024-05-09T07:04:10.793Z,48.31
2024-05-09T07:05:11.301Z,48.93
2024-05-09T07:06:10.769Z,48.66
2024-05-09T07:07:10.628Z,48.53
2024-05-09T07:08:10.729Z,49.56
2024-05-09T07:09:10.664Z,48.86
2024-05-09T07:10:17.760Z,50.73
2024-05-09T07:11:10.737Z,51.97
2024-05-09T07:12:10.737Z,52.47
2024-05-09T07:13:10.687Z,51.94
2024-05-09T07:14:10.606Z,52.04
2024-05-09T07:15:10.564Z,53.07
2024-05-09T07:16:10.535Z,52.49
2024-05-09T07:17:10.672Z,54.13
2024-05-09T07:18:10.706Z,55.11
2024-05-09T07:19:10.586Z,55.54
2024-05-09T07:20:16.188Z,55.41
2024-05-09T07:21:10.625Z,55.14
2024-05-09T07:22:10.457Z,56.75
2024-05-09T07:23:10.734Z,56.55
2024-05-09T07:24:10.485Z,55.44
2024-05-09T07:25:10.449Z,56.27
2024-05-09T07:26:10.472Z,56.37
2024-05-09T07:27:10.414Z,57.16
2024-05-09T07:28:10.400Z,58.40
2024-05-09T07:29:10.446Z,59.61
2024-05-09T07:31:10.375Z,58.78
2024-05-09T07:32:10.381Z,58.78
2024-05-09T07:33:10.516Z,58.67
2024-05-09T07:34:10.474Z,59.28
2024-05-09T07:35:10.376Z,58.58
2024-05-09T07:36:10.296Z,58.78
2024-05-09T07:37:10.314Z,59.38
2024-05-09T07:38:10.394Z,59.08
2024-05-09T07:39:10.328Z,58.27
2024-05-09T07:41:10.270Z,59.14
2024-05-09T07:42:10.251Z,59.64
2024-05-09T07:43:10.259Z,59.27
2024-05-09T07:44:10.274Z,59.67
2024-05-09T07:45:29.637Z,59.97
2024-05-09T07:47:13.925Z,60.58
2024-05-09T07:50:34.109Z,59.97
2024-05-09T07:53:32.440Z,59.97
2024-05-09T07:53:49.312Z,60.45
2024-05-09T07:54:00.450Z,59.94
2024-05-09T07:54:56.314Z,59.44
2024-05-09T07:55:56.733Z,59.84
2024-05-09T07:56:56.367Z,59.64
2024-05-09T07:57:56.033Z,59.06
2024-05-09T07:58:56.379Z,60.10
2024-05-09T07:59:55.970Z,60.71
2024-05-09T08:00:56.097Z,60.13
2024-05-09T08:01:56.195Z,60.63
2024-05-09T08:02:56.006Z,60.23
2024-05-09T08:03:56.271Z,60.27
2024-05-09T08:04:56.060Z,59.27
2024-05-09T08:05:55.930Z,59.36
2024-05-09T08:06:55.959Z,59.47
2024-05-09T08:07:55.878Z,59.87
2024-05-09T08:08:56.807Z,60.27
2024-05-09T08:09:55.915Z,60.78
2024-05-09T08:10:55.930Z,59.84
2024-05-09T08:11:55.940Z,59.31
2024-05-09T08:12:55.908Z,57.82
2024-05-09T08:13:55.817Z,57.72
2024-05-09T08:14:55.831Z,58.43
2024-05-09T08:15:55.909Z,57.62
2024-05-09T08:16:55.827Z,56.30
2024-05-09T08:17:56.132Z,57.95
2024-05-09T08:18:55.969Z,58.23
2024-05-09T08:19:55.752Z,59.23
2024-05-09T08:20:55.770Z,57.82
2024-05-09T08:21:55.878Z,57.21
2024-05-09T08:22:55.730Z,57.21
2024-05-09T08:23:55.699Z,56.61
2024-05-09T08:24:55.805Z,56.61
2024-05-09T08:25:55.809Z,55.29
2024-05-09T08:26:55.678Z,55.29
2024-05-09T08:27:55.755Z,55.60
2024-05-09T08:28:55.707Z,55.27
2024-05-09T08:29:55.725Z,55.87
2024-05-09T08:30:55.819Z,55.67
2024-05-09T08:31:55.806Z,54.76
2024-05-09T08:32:55.798Z,55.57
2024-05-09T08:33:55.801Z,56.38
2024-05-09T08:34:55.859Z,56.07
2024-05-09T08:35:55.582Z,55.24
2024-05-09T08:36:57.557Z,53.75
2024-05-09T08:37:55.783Z,53.17
2024-05-09T08:38:55.551Z,53.70
2024-05-09T08:39:55.717Z,55.02
2024-05-09T08:40:55.629Z,54.23
2024-05-09T08:41:55.545Z,55.85
2024-05-09T08:42:55.595Z,55.93
2024-05-09T08:43:55.536Z,54.58
2024-05-09T08:44:55.506Z,53.98
2024-05-09T08:45:55.522Z,53.67
2024-05-09T08:46:55.497Z,54.99
2024-05-09T08:47:55.638Z,54.76
2024-05-09T08:48:55.662Z,54.05
2024-05-09T08:49:55.514Z,54.69
2024-05-09T08:50:55.519Z,53.90
2024-05-09T08:51:55.453Z,52.76
2024-05-09T08:52:55.425Z,53.09
2024-05-09T08:53:55.407Z,52.26
2024-05-09T08:54:55.449Z,51.96
2024-05-09T08:55:55.396Z,50.95
2024-05-09T08:56:55.364Z,51.45
2024-05-09T08:57:55.458Z,51.43
2024-05-09T08:58:55.363Z,52.14
2024-05-09T08:59:55.323Z,51.96
2024-05-09T09:00:55.514Z,52.64
2024-05-09T09:01:55.544Z,53.47
2024-05-09T09:02:55.354Z,53.85
2024-05-09T09:03:55.486Z,54.16
2024-05-09T09:04:55.403Z,54.05
2024-05-09T09:05:55.274Z,54.49
2024-05-09T09:06:58.185Z,54.49
2024-05-09T09:07:55.273Z,54.18
2024-05-09T09:08:55.242Z,53.98
2024-05-09T09:09:55.328Z,54.58
2024-05-09T09:10:55.306Z,53.96
2024-05-09T09:11:55.316Z,54.36
2024-05-09T09:12:55.257Z,55.44
2024-05-09T09:13:55.178Z,54.81
2024-05-09T09:14:55.170Z,54.18
2024-05-09T09:15:55.194Z,53.47
2024-05-09T09:16:55.183Z,52.87
2024-05-09T09:17:55.348Z,54.79
2024-05-09T09:18:55.426Z,54.58
2024-05-09T09:19:55.228Z,53.65
2024-05-09T09:20:55.310Z,53.17
2024-05-09T09:21:55.161Z,53.27
2024-05-09T09:22:55.113Z,53.47
2024-05-09T09:23:55.064Z,53.78
2024-05-09T09:24:55.229Z,53.93
2024-05-09T09:25:55.046Z,54.56
2024-05-09T09:26:55.070Z,55.98
2024-05-09T09:27:55.214Z,55.67
2024-05-09T09:28:55.025Z,56.45
2024-05-09T09:29:55.020Z,55.54
2024-05-09T09:30:55.087Z,55.24
2024-05-09T09:31:55.003Z,53.50
2024-05-09T09:32:55.158Z,54.61
2024-05-09T09:33:55.258Z,55.11
2024-05-09T09:34:55.174Z,53.47
2024-05-09T09:35:55.057Z,53.45
2024-05-09T09:36:55.097Z,53.34
2024-05-09T09:37:54.974Z,55.54
2024-05-09T09:38:55.012Z,54.10
2024-05-09T09:39:54.958Z,52.09
2024-05-09T09:40:54.988Z,52.89
2024-05-09T09:41:54.930Z,53.96
2024-05-09T09:42:54.962Z,54.89
2024-05-09T09:43:54.865Z,54.91
2024-05-09T09:45:03.780Z,54.83
2024-05-09T09:45:55.015Z,54.63
2024-05-09T09:46:54.927Z,54.74
2024-05-09T09:47:54.944Z,55.65
2024-05-09T09:48:54.983Z,55.01
2024-05-09T09:49:54.893Z,54.41
2024-05-09T09:50:54.800Z,54.31
2024-05-09T09:51:54.862Z,55.09
2024-05-09T09:52:54.785Z,55.41
2024-05-09T09:53:54.759Z,56.43
2024-05-09T09:54:55.119Z,55.72
2024-05-09T09:55:54.734Z,56.25
2024-05-09T09:56:54.722Z,55.94
2024-05-09T09:57:54.860Z,56.25
2024-05-09T09:58:54.743Z,56.93
2024-05-09T09:59:54.731Z,56.20
2024-05-09T10:00:54.859Z,56.48
2024-05-09T10:01:54.717Z,55.36
2024-05-09T10:02:54.782Z,55.26
2024-05-09T10:03:54.819Z,55.69
2024-05-09T10:04:54.806Z,55.41
2024-05-09T10:05:54.812Z,56.78
2024-05-09T10:06:54.728Z,57.49
2024-05-09T10:07:54.619Z,57.76
2024-05-09T10:08:54.610Z,57.94
2024-05-09T10:09:54.621Z,56.10
2024-05-09T10:10:54.764Z,55.97
2024-05-09T10:11:59.871Z,56.37
2024-05-09T10:12:54.712Z,55.06
2024-05-09T10:13:54.583Z,55.09
2024-05-09T10:14:54.553Z,55.72
2024-05-09T10:15:54.849Z,55.32
2024-05-09T10:16:54.535Z,55.94
2024-05-09T10:17:54.751Z,56.35
2024-05-09T10:18:54.688Z,56.98
2024-05-09T10:19:54.576Z,56.88
2024-05-09T10:20:54.503Z,56.27
2024-05-09T10:21:54.557Z,56.65
2024-05-09T10:22:54.481Z,56.56
2024-05-09T10:23:54.463Z,55.32
2024-05-09T10:24:54.542Z,56.32
2024-05-09T10:25:54.449Z,56.52
2024-05-09T10:26:54.435Z,54.10
2024-05-09T10:27:54.531Z,53.72
2024-05-09T10:28:54.410Z,53.83
2024-05-09T10:29:54.422Z,53.93
2024-05-09T10:30:54.431Z,54.13
2024-05-09T10:31:54.461Z,54.53
2024-05-09T10:32:54.458Z,55.14
2024-05-09T10:33:54.659Z,54.81
2024-05-09T10:34:54.383Z,54.21
2024-05-09T10:35:54.334Z,54.43
2024-05-09T10:36:54.485Z,54.63
2024-05-09T10:37:54.320Z,55.36
2024-05-09T10:38:54.306Z,55.85
2024-05-09T10:39:54.302Z,55.94
2024-05-09T10:40:54.327Z,54.94
2024-05-09T10:41:54.295Z,54.91
2024-05-09T10:42:54.328Z,54.33
2024-05-09T10:43:55.182Z,53.83
2024-05-09T10:44:54.239Z,53.96
2024-05-09T10:45:54.302Z,54.56
2024-05-09T10:46:54.340Z,54.25
2024-05-09T10:47:54.514Z,55.36
2024-05-09T10:48:54.414Z,55.36
2024-05-09T10:49:54.297Z,55.27
2024-05-09T10:50:54.170Z,54.76
2024-05-09T10:51:54.277Z,54.13
2024-05-09T10:52:54.140Z,53.42
2024-05-09T10:53:54.131Z,53.09
2024-05-09T10:54:54.250Z,52.36
2024-05-09T10:55:54.138Z,51.43
2024-05-09T10:56:54.092Z,51.91
2024-05-09T10:57:54.193Z,53.12
2024-05-09T10:58:54.062Z,51.61
2024-05-09T10:59:54.083Z,51.73
2024-05-09T11:00:54.246Z,51.53
2024-05-09T11:01:54.201Z,51.84
2024-05-09T11:02:54.100Z,51.86
2024-05-09T11:03:54.233Z,52.14
2024-05-09T11:04:54.230Z,50.73
2024-05-09T11:05:54.131Z,50.50
2024-05-09T11:06:54.038Z,49.57
2024-05-09T11:07:54.055Z,50.85
2024-05-09T11:08:53.972Z,49.55
2024-05-09T11:09:54.005Z,49.35
2024-05-09T11:10:54.125Z,49.24
2024-05-09T11:11:53.976Z,49.55
2024-05-09T11:12:53.966Z,49.44
2024-05-09T11:13:53.932Z,49.16
2024-05-09T11:14:53.959Z,49.57
2024-05-09T11:15:53.992Z,49.97
2024-05-09T11:16:53.903Z,50.88
2024-05-09T11:17:53.955Z,49.77
2024-05-09T11:18:54.059Z,50.37
2024-05-09T11:19:53.928Z,49.16
2024-05-09T11:20:53.866Z,49.75
2024-05-09T11:21:53.890Z,48.84
2024-05-09T11:22:53.834Z,48.11
2024-05-09T11:23:53.831Z,48.99
2024-05-09T11:24:53.882Z,47.97
2024-05-09T11:25:53.811Z,47.46
2024-05-09T11:26:53.788Z,46.56
2024-05-09T11:27:53.853Z,46.26
2024-05-09T11:28:53.761Z,45.83
2024-05-09T11:29:53.754Z,46.94
2024-05-09T11:30:53.774Z,46.22
2024-05-09T11:31:53.803Z,45.31
2024-05-09T11:32:53.814Z,45.41
2024-05-09T11:33:53.870Z,45.10
2024-05-09T11:34:53.703Z,44.31
2024-05-09T11:35:53.685Z,44.28
2024-05-09T11:36:53.748Z,44.91
2024-05-09T11:37:53.712Z,44.93
2024-05-09T11:38:53.635Z,45.45
2024-05-09T11:39:53.742Z,47.28
2024-05-09T11:40:53.699Z,48.09
2024-05-09T11:41:53.653Z,48.21
2024-05-09T11:42:53.760Z,49.15
2024-05-09T11:43:53.589Z,49.15
2024-05-09T11:44:53.690Z,49.37
2024-05-09T11:45:53.710Z,50.27
2024-05-09T11:46:53.595Z,49.59
2024-05-09T11:47:53.693Z,50.80
2024-05-09T11:48:53.833Z,50.30
2024-05-09T11:49:53.622Z,50.07
2024-05-09T11:50:53.602Z,49.87
2024-05-09T11:51:53.610Z,49.95
2024-05-09T11:52:53.508Z,49.62
2024-05-09T11:53:53.541Z,49.80
2024-05-09T11:54:53.556Z,49.98
2024-05-09T11:55:53.507Z,50.13
2024-05-09T11:56:53.496Z,48.60
2024-05-09T11:57:53.524Z,47.38
2024-05-09T11:58:53.431Z,45.87
2024-05-09T11:59:53.434Z,46.57
2024-05-09T12:00:53.567Z,48.08
2024-05-09T12:01:53.611Z,47.45
2024-05-09T12:02:53.452Z,46.65
2024-05-09T12:03:53.632Z,45.25
2024-05-09T12:04:53.556Z,44.42
2024-05-09T12:05:53.429Z,45.12
2024-05-09T12:06:53.454Z,45.12
2024-05-09T12:07:53.375Z,44.52
2024-05-09T12:08:53.370Z,44.74
2024-05-09T12:09:53.357Z,44.79
2024-05-09T12:10:53.852Z,45.31
2024-05-09T12:11:53.450Z,45.33
2024-05-09T12:12:53.357Z,46.44
2024-05-09T12:13:53.286Z,46.56
2024-05-09T12:14:53.268Z,46.26
2024-05-09T12:15:53.348Z,46.15
2024-05-09T12:16:53.291Z,46.06
2024-05-09T12:17:53.383Z,45.05
2024-05-09T12:18:53.366Z,45.35
2024-05-09T12:19:53.231Z,45.73
2024-05-09T12:20:53.250Z,45.18
2024-05-09T12:21:53.272Z,45.17
2024-05-09T12:22:53.174Z,45.67
2024-05-09T12:23:53.184Z,45.87
2024-05-09T12:24:53.232Z,45.89
2024-05-09T12:25:53.178Z,46.69
2024-05-09T12:26:53.162Z,46.81
2024-05-09T12:27:53.236Z,48.25
2024-05-09T12:28:53.139Z,48.05
2024-05-09T12:29:53.124Z,48.47
2024-05-09T12:30:53.211Z,48.99
2024-05-09T12:31:53.219Z,49.10
2024-05-09T12:32:53.362Z,49.32
2024-05-09T12:33:53.184Z,49.22
2024-05-09T12:34:53.109Z,49.12
2024-05-09T12:35:53.054Z,49.62
2024-05-09T12:36:53.094Z,48.61
2024-05-09T12:37:53.020Z,49.62
2024-05-09T12:38:53.046Z,49.40
2024-05-09T12:39:53.083Z,49.30
2024-05-09T12:40:53.226Z,48.69
2024-05-09T12:41:53.048Z,48.59
2024-05-09T12:42:53.013Z,49.10
2024-05-09T12:43:52.998Z,49.98
2024-05-09T12:44:52.945Z,49.27
2024-05-09T12:45:52.969Z,48.97
2024-05-09T12:46:52.953Z,50.18
2024-05-09T12:47:52.994Z,49.07
2024-05-09T12:48:53.187Z,48.97
2024-05-09T12:49:52.974Z,47.97
2024-05-09T12:50:52.964Z,50.78
2024-05-09T12:51:52.977Z,49.57
2024-05-09T12:52:52.912Z,48.27
2024-05-09T12:53:52.916Z,48.07
2024-05-09T12:54:52.939Z,48.47
2024-05-09T12:55:57.007Z,48.77
2024-05-09T12:56:52.856Z,47.16
2024-05-09T12:57:52.952Z,48.17
2024-05-09T12:58:52.819Z,46.56